createdAt,value
2023-04-20T00:01:36.186Z,4.50
2023-04-20T00:04:04.517Z,4.50
2023-04-20T00:06:34.640Z,4.40
2023-04-20T00:09:04.619Z,4.40
2023-04-20T00:11:34.054Z,4.40
2023-04-20T00:14:02.012Z,4.40
2023-04-20T00:16:30.059Z,4.40
2023-04-20T00:18:59.139Z,4.40
2023-04-20T00:21:27.172Z,4.30
2023-04-20T00:23:55.276Z,4.30
2023-04-20T00:26:23.277Z,4.30
2023-04-20T00:28:53.530Z,4.30
2023-04-20T00:31:22.455Z,4.30
2023-04-20T00:33:50.632Z,4.30
2023-04-20T00:36:18.686Z,4.20
2023-04-20T00:38:46.683Z,4.20
2023-04-20T00:41:14.708Z,4.20
2023-04-20T00:43:53.600Z,4.20
2023-04-20T00:46:22.745Z,4.20
2023-04-20T00:48:52.105Z,4.20
2023-04-20T00:51:22.211Z,4.20
2023-04-20T00:53:50.199Z,4.30
2023-04-20T00:56:19.660Z,4.30
2023-04-20T00:58:48.045Z,4.30
2023-04-20T01:01:18.375Z,4.20
2023-04-20T01:03:46.953Z,4.30
2023-04-20T01:06:15.792Z,4.30
2023-04-20T01:08:49.547Z,4.30
2023-04-20T01:11:18.056Z,4.20
2023-04-20T01:13:46.305Z,4.20
2023-04-20T01:16:14.766Z,4.20
2023-04-20T01:18:46.500Z,4.20
2023-04-20T01:21:16.763Z,4.20
2023-04-20T01:23:46.632Z,4.20
2023-04-20T01:26:16.879Z,4.20
2023-04-20T01:28:45.391Z,4.20
2023-04-20T01:31:14.132Z,4.20
2023-04-20T01:33:42.508Z,4.30
2023-04-20T01:36:11.028Z,4.20
2023-04-20T01:38:39.118Z,4.20
2023-04-20T01:41:10.629Z,4.20
2023-04-20T01:43:39.631Z,4.30
2023-04-20T01:46:08.975Z,4.20
2023-04-20T01:48:37.178Z,4.20
2023-04-20T01:51:05.370Z,4.20
2023-04-20T01:53:33.380Z,4.20
2023-04-20T01:56:01.334Z,4.20
2023-04-20T01:58:31.825Z,4.30
2023-04-20T02:01:01.828Z,4.20
2023-04-20T02:03:29.999Z,4.20
2023-04-20T02:05:58.235Z,4.20
2023-04-20T02:08:26.272Z,4.20
2023-04-20T02:10:54.711Z,4.20
2023-04-20T02:13:22.666Z,4.30
2023-04-20T02:15:52.038Z,4.30
2023-04-20T02:18:20.026Z,4.30
2023-04-20T02:20:48.190Z,4.30
2023-04-20T02:23:19.937Z,4.30
2023-04-20T02:25:47.942Z,4.30
2023-04-20T02:28:15.891Z,4.30
2023-04-20T02:30:43.902Z,4.30
2023-04-20T02:33:13.279Z,4.30
2023-04-20T02:35:41.665Z,4.30
2023-04-20T02:38:09.644Z,4.30
2023-04-20T02:40:37.687Z,4.30
2023-04-20T02:43:05.901Z,4.30
2023-04-20T02:45:34.016Z,4.30
2023-04-20T02:48:03.112Z,4.30
2023-04-20T02:50:32.449Z,4.30
2023-04-20T02:53:00.372Z,4.30
2023-04-20T02:55:28.588Z,4.30
2023-04-20T02:57:56.535Z,4.30
2023-04-20T03:00:25.033Z,4.20
2023-04-20T03:02:53.169Z,4.20
2023-04-20T03:05:21.783Z,4.20
2023-04-20T03:07:51.115Z,4.20
2023-04-20T03:10:19.100Z,4.10
2023-04-20T03:12:47.429Z,4.10
2023-04-20T03:15:15.668Z,4.10
2023-04-20T03:17:43.696Z,4.10
2023-04-20T03:20:12.336Z,4.10
2023-04-20T03:22:40.345Z,4.00
2023-04-20T03:25:10.775Z,4.00
2023-04-20T03:27:38.799Z,4.00
2023-04-20T03:30:13.099Z,3.90
2023-04-20T03:32:42.276Z,3.90
2023-04-20T03:35:12.117Z,3.90
2023-04-20T03:37:40.102Z,3.90
2023-04-20T03:40:11.087Z,3.80
2023-04-20T03:42:39.105Z,3.80
2023-04-20T03:45:08.156Z,3.80
2023-04-20T03:47:37.898Z,3.80
2023-04-20T03:50:06.907Z,3.80
2023-04-20T03:52:34.879Z,3.70
2023-04-20T03:55:02.936Z,3.70
2023-04-20T03:57:32.277Z,3.60
2023-04-20T04:00:00.927Z,3.70
2023-04-20T04:02:29.233Z,3.70
2023-04-20T04:04:57.438Z,3.60
2023-04-20T04:07:25.481Z,3.60
2023-04-20T04:09:53.552Z,3.60
2023-04-20T04:12:21.911Z,3.60
2023-04-20T04:14:51.261Z,3.60
2023-04-20T04:17:19.240Z,3.60
2023-04-20T04:19:47.264Z,3.50
2023-04-20T04:22:15.283Z,3.60
2023-04-20T04:24:47.474Z,3.60
2023-04-20T04:27:15.648Z,3.60
2023-04-20T04:29:44.786Z,3.70
2023-04-20T04:32:14.701Z,3.60
2023-04-20T04:34:44.358Z,3.60
2023-04-20T04:37:13.443Z,3.60
2023-04-20T04:39:41.471Z,3.60
2023-04-20T04:42:09.456Z,3.60
2023-04-20T04:44:37.521Z,3.60
2023-04-20T04:47:05.809Z,3.60
2023-04-20T04:49:36.350Z,3.50
2023-04-20T04:52:04.477Z,3.50
2023-04-20T04:54:32.475Z,3.60
2023-04-20T04:57:00.445Z,3.60
2023-04-20T04:59:28.501Z,3.60
2023-04-20T05:01:56.749Z,3.60
2023-04-20T05:04:24.999Z,3.60
2023-04-20T05:06:54.446Z,3.60
2023-04-20T05:09:22.518Z,3.60
2023-04-20T05:11:50.516Z,3.60
2023-04-20T05:14:18.841Z,3.60
2023-04-20T05:16:46.861Z,3.70
2023-04-20T05:19:14.961Z,3.60
2023-04-20T05:21:42.987Z,3.60
2023-04-20T05:24:12.370Z,3.60
2023-04-20T05:26:40.541Z,3.60
2023-04-20T05:29:08.523Z,3.60
2023-04-20T05:31:36.638Z,3.70
2023-04-20T05:34:04.693Z,3.70
2023-04-20T05:36:33.527Z,3.70
2023-04-20T05:39:02.111Z,3.80
2023-04-20T05:41:31.461Z,3.80
2023-04-20T05:43:59.483Z,3.90
2023-04-20T05:46:29.150Z,3.80
2023-04-20T05:48:57.328Z,3.80
2023-04-20T05:51:29.542Z,3.90
2023-04-20T05:53:57.540Z,3.90
2023-04-20T05:56:25.735Z,3.90
2023-04-20T05:58:55.705Z,3.80
2023-04-20T06:01:23.813Z,3.80
2023-04-20T06:03:52.171Z,4.00
2023-04-20T06:06:20.274Z,4.00
2023-04-20T06:08:48.453Z,4.00
2023-04-20T06:11:16.412Z,4.00
2023-04-20T06:13:44.452Z,4.00
2023-04-20T06:16:14.293Z,4.10
2023-04-20T06:18:42.260Z,4.00
2023-04-20T06:21:11.105Z,4.00
2023-04-20T06:23:39.275Z,4.10
2023-04-20T06:26:08.866Z,4.10
2023-04-20T06:28:37.717Z,4.10
2023-04-20T06:31:06.118Z,4.10
2023-04-20T06:33:35.657Z,4.10
2023-04-20T06:36:03.688Z,4.10
2023-04-20T06:38:31.689Z,4.10
2023-04-20T06:41:02.862Z,4.10
2023-04-20T06:43:31.089Z,4.00
2023-04-20T06:45:59.078Z,4.10
2023-04-20T06:48:31.629Z,4.20
2023-04-20T06:51:01.968Z,4.10
2023-04-20T06:53:30.462Z,4.20
2023-04-20T06:55:58.783Z,4.30
2023-04-20T06:58:26.796Z,4.20
2023-04-20T07:00:54.934Z,4.20
2023-04-20T07:03:23.329Z,4.20
2023-04-20T07:05:51.632Z,4.20
2023-04-20T07:08:21.362Z,4.20
2023-04-20T07:10:49.351Z,4.20
2023-04-20T07:13:17.310Z,4.30
2023-04-20T07:15:46.710Z,4.40
2023-04-20T07:18:15.417Z,4.40
2023-04-20T07:20:43.719Z,4.40
2023-04-20T07:23:11.738Z,4.50
2023-04-20T07:25:41.174Z,4.30
2023-04-20T07:28:09.203Z,4.40
2023-04-20T07:30:37.537Z,4.30
2023-04-20T07:33:05.786Z,4.30
2023-04-20T07:35:34.781Z,4.40
2023-04-20T07:38:02.894Z,4.30
2023-04-20T07:40:31.092Z,4.50
2023-04-20T07:43:00.864Z,4.40
2023-04-20T07:45:29.129Z,4.50
2023-04-20T07:48:01.461Z,4.70
2023-04-20T07:50:29.889Z,4.70
2023-04-20T07:52:58.040Z,4.70
2023-04-20T07:58:17.466Z,4.70
2023-04-20T08:00:47.430Z,4.70
2023-04-20T08:03:15.817Z,4.60
2023-04-20T08:05:44.732Z,4.70
2023-04-20T08:08:12.815Z,4.60
2023-04-20T08:10:40.860Z,4.70
2023-04-20T08:13:08.862Z,4.70
2023-04-20T08:15:38.370Z,4.60
2023-04-20T08:18:07.412Z,4.70
2023-04-20T08:20:35.844Z,4.80
2023-04-20T08:23:03.955Z,4.80
2023-04-20T08:25:32.929Z,4.90
2023-04-20T08:28:01.104Z,4.90
2023-04-20T08:30:29.630Z,4.90
2023-04-20T08:33:00.126Z,5.00
2023-04-20T08:35:28.267Z,5.10
2023-04-20T08:37:56.449Z,5.10
2023-04-20T08:40:25.119Z,5.10
2023-04-20T08:42:53.659Z,5.30
2023-04-20T08:45:21.848Z,5.40
2023-04-20T08:47:51.702Z,5.40
2023-04-20T08:50:22.300Z,5.60
2023-04-20T08:52:50.336Z,5.60
2023-04-20T08:55:21.627Z,5.50
2023-04-20T08:57:50.343Z,5.50
2023-04-20T09:00:19.212Z,5.60
2023-04-20T09:02:51.527Z,5.60
2023-04-20T09:05:29.685Z,5.70
2023-04-20T09:08:02.237Z,5.60
2023-04-20T09:10:43.133Z,5.30
2023-04-20T09:13:11.253Z,5.50
2023-04-20T09:15:39.469Z,5.70
2023-04-20T09:18:15.427Z,5.80
2023-04-20T09:20:45.164Z,5.90
2023-04-20T09:23:13.852Z,5.90
2023-04-20T09:25:43.659Z,6.20
2023-04-20T09:28:11.787Z,6.20
2023-04-20T09:30:40.929Z,6.10
2023-04-20T09:33:10.916Z,6.20
2023-04-20T09:35:40.502Z,6.50
2023-04-20T09:38:10.931Z,6.60
2023-04-20T09:40:39.136Z,6.30
2023-04-20T09:43:15.205Z,6.50
2023-04-20T09:45:43.790Z,6.60
2023-04-20T09:48:15.752Z,6.70
2023-04-20T09:50:49.899Z,7.00
2023-04-20T09:53:20.808Z,7.10
2023-04-20T09:55:50.360Z,7.00
2023-04-20T09:58:20.721Z,6.90
2023-04-20T10:00:49.105Z,6.90
2023-04-20T10:03:18.612Z,7.00
2023-04-20T10:05:46.988Z,7.00
2023-04-20T10:08:15.192Z,6.80
2023-04-20T10:10:49.888Z,6.80
2023-04-20T10:13:19.513Z,6.70
2023-04-20T10:15:47.872Z,6.70
2023-04-20T10:18:24.605Z,6.70
2023-04-20T10:21:05.125Z,6.50
2023-04-20T10:23:33.109Z,6.50
2023-04-20T10:26:04.002Z,6.60
2023-04-20T10:28:42.981Z,6.40
2023-04-20T10:31:13.944Z,6.50
2023-04-20T10:33:52.467Z,6.50
2023-04-20T10:36:31.390Z,6.50
2023-04-20T10:39:00.586Z,6.60
2023-04-20T10:41:30.694Z,6.70
2023-04-20T10:44:08.762Z,6.80
2023-04-20T10:46:37.050Z,6.90
2023-04-20T10:49:05.194Z,6.80
2023-04-20T10:51:33.664Z,6.80
2023-04-20T10:54:04.981Z,6.80
2023-04-20T10:56:45.703Z,7.20
2023-04-20T10:59:16.304Z,7.40
2023-04-20T11:01:47.259Z,7.60
2023-04-20T11:04:18.461Z,8.00
2023-04-20T11:06:48.814Z,8.30
2023-04-20T11:09:22.685Z,8.20
2023-04-20T11:12:02.401Z,8.20
2023-04-20T11:14:31.119Z,8.50
2023-04-20T11:16:59.309Z,8.80
2023-04-20T11:19:28.626Z,8.60
2023-04-20T11:21:57.027Z,8.40
2023-04-20T11:24:28.066Z,8.30
2023-04-20T11:26:56.724Z,8.40
2023-04-20T11:29:34.367Z,8.30
2023-04-20T11:32:05.371Z,8.20
2023-04-20T11:34:34.729Z,8.10
2023-04-20T11:37:06.663Z,8.00
2023-04-20T11:39:35.085Z,7.70
2023-04-20T11:42:03.734Z,7.40
2023-04-20T11:44:34.039Z,7.50
2023-04-20T11:47:02.435Z,7.50
2023-04-20T11:49:31.846Z,7.40
2023-04-20T11:52:00.150Z,7.50
2023-04-20T11:54:29.894Z,7.50
2023-04-20T11:56:59.040Z,7.40
2023-04-20T11:59:30.662Z,7.30
2023-04-20T12:02:02.908Z,7.20
2023-04-20T12:04:31.446Z,7.20
2023-04-20T12:07:00.256Z,7.00
2023-04-20T12:09:28.504Z,6.90
2023-04-20T12:11:58.299Z,6.60
2023-04-20T12:14:27.275Z,6.60
2023-04-20T12:16:57.435Z,6.70
2023-04-20T12:19:29.905Z,6.70
2023-04-20T12:22:00.014Z,6.70
2023-04-20T12:24:28.204Z,6.90
2023-04-20T12:26:57.804Z,6.80
2023-04-20T12:29:26.075Z,6.80
2023-04-20T12:31:54.213Z,6.90
2023-04-20T12:34:25.640Z,7.00
2023-04-20T12:36:55.136Z,7.00
2023-04-20T12:39:23.221Z,7.00
2023-04-20T12:41:51.353Z,7.00
2023-04-20T12:44:19.587Z,7.20
2023-04-20T12:46:48.311Z,7.30
2023-04-20T12:49:16.775Z,7.50
2023-04-20T12:51:45.091Z,7.60
2023-04-20T12:54:14.724Z,7.50
2023-04-20T12:56:42.844Z,7.60
2023-04-20T12:59:11.380Z,7.70
2023-04-20T13:01:39.406Z,7.80
2023-04-20T13:04:07.621Z,7.80
2023-04-20T13:06:35.993Z,7.70
2023-04-20T13:09:04.687Z,7.70
2023-04-20T13:11:34.888Z,7.60
2023-04-20T13:14:03.006Z,7.80
2023-04-20T13:16:31.051Z,8.00
2023-04-20T13:18:59.253Z,8.00
2023-04-20T13:21:27.357Z,8.30
2023-04-20T13:23:58.534Z,8.50
2023-04-20T13:26:26.989Z,8.50
2023-04-20T13:28:58.451Z,8.60
2023-04-20T13:31:26.869Z,8.70
2023-04-20T13:33:55.354Z,8.70
2023-04-20T13:36:24.948Z,9.00
2023-04-20T13:38:53.667Z,9.10
2023-04-20T13:41:21.904Z,9.20
2023-04-20T13:43:50.751Z,9.40
2023-04-20T13:46:21.389Z,9.10
2023-04-20T13:48:50.445Z,9.30
2023-04-20T13:51:19.096Z,9.50
2023-04-20T13:53:48.702Z,9.30
2023-04-20T13:56:17.469Z,9.40
2023-04-20T13:58:46.171Z,9.50
2023-04-20T14:01:16.744Z,9.70
2023-04-20T14:03:46.902Z,9.50
2023-04-20T14:06:15.132Z,9.60
2023-04-20T14:08:43.438Z,9.50
2023-04-20T14:11:11.733Z,9.50
2023-04-20T14:13:40.081Z,9.70
2023-04-20T14:16:11.562Z,10.10
2023-04-20T14:18:39.775Z,10.00
2023-04-20T14:21:09.384Z,10.10
2023-04-20T14:23:37.678Z,9.90
2023-04-20T14:26:06.218Z,9.80
2023-04-20T14:28:35.116Z,9.50
2023-04-20T14:31:03.655Z,9.70
2023-04-20T14:33:31.764Z,9.80
2023-04-20T14:35:59.816Z,9.80
2023-04-20T14:38:29.665Z,9.80
2023-04-20T14:40:57.809Z,9.70
2023-04-20T14:43:26.072Z,9.90
2023-04-20T14:45:55.166Z,10.10
2023-04-20T14:48:24.225Z,10.20
2023-04-20T14:50:52.506Z,10.30
2023-04-20T14:53:21.612Z,10.40
2023-04-20T14:55:51.810Z,10.40
2023-04-20T14:58:20.568Z,10.50
2023-04-20T15:00:49.621Z,10.60
2023-04-20T15:03:18.424Z,10.60
2023-04-20T15:05:48.232Z,10.60
2023-04-20T15:08:18.625Z,10.60
2023-04-20T15:10:46.723Z,10.60
2023-04-20T15:13:16.399Z,10.60
2023-04-20T15:15:48.985Z,10.60
2023-04-20T15:18:17.713Z,10.60
2023-04-20T15:20:45.967Z,10.60
2023-04-20T15:23:14.123Z,10.60
2023-04-20T15:25:42.305Z,10.60
2023-04-20T15:28:11.536Z,10.70
2023-04-20T15:30:40.996Z,10.70
2023-04-20T15:33:09.158Z,10.50
2023-04-20T15:35:37.257Z,10.40
2023-04-20T15:38:05.534Z,10.40
2023-04-20T15:40:33.951Z,10.60
2023-04-20T15:43:02.819Z,10.60
2023-04-20T15:45:31.186Z,10.80
2023-04-20T15:48:01.023Z,11.00
2023-04-20T15:50:29.530Z,11.20
2023-04-20T15:52:58.236Z,11.20
2023-04-20T15:55:26.453Z,11.10
2023-04-20T15:57:58.013Z,11.00
2023-04-20T16:00:26.239Z,10.90
2023-04-20T16:02:54.843Z,11.00
2023-04-20T16:05:24.959Z,10.90
2023-04-20T16:07:53.669Z,10.80
2023-04-20T16:10:23.476Z,10.90
2023-04-20T16:12:51.570Z,11.00
2023-04-20T16:15:19.931Z,11.20
2023-04-20T16:17:48.485Z,11.10
2023-04-20T16:20:16.779Z,11.10
2023-04-20T16:22:46.322Z,11.20
2023-04-20T16:25:22.533Z,11.00
2023-04-20T16:27:52.305Z,11.00
2023-04-20T16:30:20.641Z,10.90
2023-04-20T16:32:48.780Z,10.80
2023-04-20T16:35:16.963Z,10.70
2023-04-20T16:37:47.137Z,10.60
2023-04-20T16:40:16.170Z,10.40
2023-04-20T16:42:44.232Z,10.40
2023-04-20T16:45:12.342Z,10.40
2023-04-20T16:47:40.630Z,10.20
2023-04-20T16:50:09.301Z,10.20
2023-04-20T16:52:39.363Z,10.20
2023-04-20T16:55:09.834Z,10.20
2023-04-20T16:57:37.924Z,10.20
2023-04-20T17:00:07.682Z,10.10
2023-04-20T17:02:36.272Z,10.10
2023-04-20T17:05:05.144Z,10.10
2023-04-20T17:07:33.756Z,10.10
2023-04-20T17:10:01.892Z,10.00
2023-04-20T17:12:33.804Z,9.90
2023-04-20T17:15:02.291Z,9.70
2023-04-20T17:17:31.085Z,9.60
2023-04-20T17:19:59.437Z,9.60
2023-04-20T17:22:27.831Z,9.50
2023-04-20T17:24:56.220Z,9.40
2023-04-20T17:27:24.312Z,9.40
2023-04-20T17:29:56.122Z,9.30
2023-04-20T17:32:24.713Z,9.30
2023-04-20T17:34:53.879Z,9.20
2023-04-20T17:37:23.172Z,9.20
2023-04-20T17:39:51.827Z,9.10
2023-04-20T17:42:20.833Z,9.00
2023-04-20T17:44:48.889Z,9.00
2023-04-20T17:47:18.626Z,9.00
2023-04-20T17:49:46.801Z,8.90
2023-04-20T17:52:19.356Z,8.90
2023-04-20T17:54:48.251Z,8.80
2023-04-20T17:57:16.496Z,8.70
2023-04-20T17:59:44.653Z,8.70
2023-04-20T18:02:13.485Z,8.60
2023-04-20T18:04:43.202Z,8.60
2023-04-20T18:07:13.412Z,8.60
2023-04-20T18:09:42.725Z,8.60
2023-04-20T18:12:11.418Z,8.60
2023-04-20T18:14:40.912Z,8.50
2023-04-20T18:17:09.199Z,8.50
2023-04-20T18:19:37.756Z,8.50
2023-04-20T18:22:07.551Z,8.50
2023-04-20T18:24:35.669Z,8.50
2023-04-20T18:27:04.190Z,8.50
2023-04-20T18:29:32.505Z,8.40
2023-04-20T18:32:04.316Z,8.40
2023-04-20T18:34:32.517Z,8.40
2023-04-20T18:37:00.627Z,8.40
2023-04-20T18:39:30.163Z,8.40
2023-04-20T18:41:58.320Z,8.40
2023-04-20T18:44:28.408Z,8.40
2023-04-20T18:46:56.774Z,8.40
2023-04-20T18:49:24.832Z,8.40
2023-04-20T18:51:53.076Z,8.40
2023-04-20T18:54:21.237Z,8.40
2023-04-20T18:56:51.423Z,8.40
2023-04-20T18:59:20.279Z,8.30
2023-04-20T19:01:49.144Z,8.30
2023-04-20T19:04:17.810Z,8.30
2023-04-20T19:06:46.102Z,8.20
2023-04-20T19:09:14.507Z,8.20
2023-04-20T19:11:42.656Z,8.20
2023-04-20T19:14:13.314Z,8.20
2023-04-20T19:16:41.452Z,8.10
2023-04-20T19:19:09.724Z,8.10
2023-04-20T19:21:38.203Z,8.10
2023-04-20T19:24:07.068Z,8.00
2023-04-20T19:26:35.476Z,8.00
2023-04-20T19:29:03.632Z,8.00
2023-04-20T19:31:37.552Z,8.00
2023-04-20T19:34:06.752Z,8.00
2023-04-20T19:36:35.056Z,7.90
2023-04-20T19:39:03.962Z,7.90
2023-04-20T19:41:32.091Z,7.80
2023-04-20T19:44:00.723Z,7.80
2023-04-20T19:46:32.651Z,7.70
2023-04-20T19:49:02.682Z,7.60
2023-04-20T19:51:32.166Z,7.60
2023-04-20T19:54:01.719Z,7.60
2023-04-20T19:56:29.812Z,7.50
2023-04-20T19:58:58.055Z,7.50
2023-04-20T20:01:26.147Z,7.50
2023-04-20T20:03:54.514Z,7.50
2023-04-20T20:06:24.203Z,7.50
2023-04-20T20:08:52.360Z,7.40
2023-04-20T20:11:22.171Z,7.40
2023-04-20T20:13:50.142Z,7.40
2023-04-20T20:16:18.476Z,7.40
2023-04-20T20:18:48.594Z,7.40
2023-04-20T20:21:16.582Z,7.30
2023-04-20T20:23:46.545Z,7.30
2023-04-20T20:26:14.852Z,7.40
2023-04-20T20:28:43.088Z,7.30
2023-04-20T20:31:11.218Z,7.30
2023-04-20T20:33:39.359Z,7.30
2023-04-20T20:36:08.031Z,7.30
2023-04-20T20:38:36.238Z,7.30
2023-04-20T20:41:06.646Z,7.30
2023-04-20T20:43:34.806Z,7.30
2023-04-20T20:46:02.869Z,7.20
2023-04-20T20:48:31.295Z,7.20
2023-04-20T20:50:59.328Z,7.20
2023-04-20T20:53:28.312Z,7.20
2023-04-20T20:55:56.552Z,7.20
2023-04-20T20:58:26.099Z,7.20
2023-04-20T21:00:54.544Z,7.10
2023-04-20T21:03:22.812Z,7.10
2023-04-20T21:05:51.162Z,7.20
2023-04-20T21:08:19.398Z,7.20
2023-04-20T21:10:47.429Z,7.20
2023-04-20T21:13:16.115Z,7.10
2023-04-20T21:15:45.726Z,7.10
2023-04-20T21:18:13.756Z,7.10
2023-04-20T21:20:41.713Z,7.10
2023-04-20T21:23:09.701Z,7.10
2023-04-20T21:25:38.088Z,7.10
2023-04-20T21:28:06.416Z,7.10
2023-04-20T21:30:35.274Z,7.10
2023-04-20T21:33:04.757Z,7.10
2023-04-20T21:35:32.797Z,7.00
2023-04-20T21:38:00.972Z,7.00
2023-04-20T21:40:28.987Z,7.10
2023-04-20T21:42:57.064Z,7.00
2023-04-20T21:45:25.003Z,7.00
2023-04-20T21:47:55.272Z,7.00
2023-04-20T21:50:27.429Z,7.00
2023-04-20T21:52:55.501Z,6.90
2023-04-20T21:55:24.811Z,6.90
2023-04-20T21:57:52.865Z,6.90
2023-04-20T22:00:21.210Z,6.90
2023-04-20T22:02:50.578Z,6.90
2023-04-20T22:05:19.034Z,7.00
2023-04-20T22:07:48.420Z,7.00
2023-04-20T22:10:16.432Z,7.00
2023-04-20T22:12:44.449Z,7.00
2023-04-20T22:15:15.211Z,7.00
2023-04-20T22:17:45.372Z,7.00
2023-04-20T22:20:15.074Z,6.90
2023-04-20T22:22:43.204Z,7.00
2023-04-20T22:25:12.983Z,7.00
2023-04-20T22:27:41.471Z,7.00
2023-04-20T22:30:10.386Z,7.00
2023-04-20T22:32:38.851Z,6.90
2023-04-20T22:35:07.894Z,6.90
2023-04-20T22:37:36.266Z,6.90
2023-04-20T22:40:06.444Z,6.90
2023-04-20T22:42:36.118Z,6.90
2023-04-20T22:45:04.396Z,6.90
2023-04-20T22:47:32.489Z,6.90
2023-04-20T22:50:01.650Z,7.00
2023-04-20T22:52:30.085Z,7.00
2023-04-20T22:54:58.101Z,7.00
2023-04-20T22:57:27.138Z,7.00
2023-04-20T22:59:56.562Z,7.00
2023-04-20T23:02:24.985Z,7.00
2023-04-20T23:04:53.286Z,7.00
2023-04-20T23:07:21.273Z,7.00
2023-04-20T23:09:49.245Z,7.00
2023-04-20T23:12:17.492Z,7.00
2023-04-20T23:14:45.636Z,7.00
2023-04-20T23:17:15.552Z,7.00
2023-04-20T23:19:43.581Z,7.00
2023-04-20T23:22:11.546Z,6.90
2023-04-20T23:24:39.636Z,6.90
2023-04-20T23:27:07.674Z,6.90
2023-04-20T23:29:36.568Z,6.80
2023-04-20T23:32:05.031Z,6.80
2023-04-20T23:34:35.147Z,6.80
2023-04-20T23:37:03.396Z,6.80
2023-04-20T23:39:31.379Z,6.80
2023-04-20T23:41:59.556Z,6.80
2023-04-20T23:44:27.530Z,6.80
2023-04-20T23:46:55.484Z,6.80
2023-04-20T23:49:23.454Z,6.80
2023-04-20T23:51:52.800Z,6.70
2023-04-20T23:54:21.150Z,6.70
2023-04-20T23:56:49.137Z,6.80
2023-04-20T23:59:17.487Z,6.80
